Time;durP1;ratioP1;P1;durP2;ratioP2;P2;SDS_P1;SDS_P2;PMS_P1;PMS_P2;Temp;Humidity;BMP_temperature;BMP_pressure;BME280_temperature;BME280_humidity;BME280_pressure;Samples;Min_cycle;Max_cycle;Signal;HPM_P1;HPM_P2
2021/03/11 00:02:25;;;;;;;26.23;16.40;;;;;;;10.73;57.97;100223.94;4934195;28;123335;-67
2021/03/11 00:04:52;;;;;;;20.88;14.63;;;;;;;10.74;57.32;100217.69;4946399;28;124693;-68
2021/03/11 00:07:18;;;;;;;22.25;14.65;;;;;;;10.75;58.17;100216.75;4949268;28;118461;-68
2021/03/11 00:09:45;;;;;;;25.08;15.45;;;;;;;10.75;57.72;100211.47;4930499;28;118388;-67
2021/03/11 00:12:12;;;;;;;23.85;15.35;;;;;;;10.76;57.85;100202.59;4950025;28;123124;-67
2021/03/11 00:14:39;;;;;;;24.77;15.07;;;;;;;10.77;57.69;100199.00;4922794;28;123733;-68
2021/03/11 00:17:06;;;;;;;27.23;15.40;;;;;;;10.75;57.62;100190.28;4949508;28;118745;-68
2021/03/11 00:19:34;;;;;;;27.50;15.73;;;;;;;10.77;57.84;100180.44;4948045;28;119265;-68
2021/03/11 00:22:01;;;;;;;25.48;14.85;;;;;;;10.78;57.45;100179.53;4948013;28;124122;-67
2021/03/11 00:24:28;;;;;;;25.63;15.07;;;;;;;10.79;57.82;100175.91;4942680;28;124146;-66
2021/03/11 00:26:55;;;;;;;25.10;14.93;;;;;;;10.80;57.90;100177.63;4943229;28;117846;-67
2021/03/11 00:29:21;;;;;;;24.70;15.02;;;;;;;10.81;57.97;100185.50;4948828;28;119298;-66
2021/03/11 00:31:48;;;;;;;20.40;14.13;;;;;;;10.82;57.81;100173.09;4925567;28;122866;-67
2021/03/11 00:34:15;;;;;;;25.50;14.32;;;;;;;10.84;57.58;100179.16;4921071;28;123746;-67
2021/03/11 00:36:41;;;;;;;25.02;14.70;;;;;;;10.84;57.47;100168.56;4947920;28;120354;-67
2021/03/11 00:39:08;;;;;;;21.95;14.60;;;;;;;10.84;57.46;100185.31;4946893;28;119321;-67
2021/03/11 00:41:35;;;;;;;23.67;14.50;;;;;;;10.86;57.55;100166.69;4948027;28;123254;-68
2021/03/11 00:44:02;;;;;;;23.75;14.05;;;;;;;10.88;57.78;100156.84;4942913;23;123479;-71
2021/03/11 00:46:28;;;;;;;22.23;13.98;;;;;;;10.90;57.72;100144.38;4949299;28;120392;-72
2021/03/11 00:48:55;;;;;;;22.05;14.45;;;;;;;10.92;57.74;100145.13;4950859;28;120297;-71
2021/03/11 00:51:22;;;;;;;18.75;13.40;;;;;;;10.95;57.53;100123.78;4950259;28;124749;-72
2021/03/11 00:53:55;;;;;;;24.67;13.88;;;;;;;10.97;57.61;100113.94;4942588;28;123226;-74
2021/03/11 00:56:22;;;;;;;21.02;13.55;;;;;;;10.99;57.71;100105.91;4937993;28;119303;-74
2021/03/11 00:58:49;;;;;;;20.30;12.60;;;;;;;10.99;57.49;100096.16;4925051;28;118194;-74
2021/03/11 01:01:15;;;;;;;23.88;13.10;;;;;;;10.99;57.97;100106.75;4926741;28;124292;-74
2021/03/11 01:03:50;;;;;;;21.38;12.63;;;;;;;11.00;57.89;100095.22;4937257;28;124071;-74
2021/03/11 01:06:18;;;;;;;19.42;12.75;;;;;;;11.02;57.95;100097.75;4921967;28;118639;-74
2021/03/11 01:08:46;;;;;;;19.30;12.93;;;;;;;11.06;57.74;100083.41;4937732;28;118261;-74
2021/03/11 01:11:13;;;;;;;18.92;13.05;;;;;;;11.07;58.05;100075.34;4929188;28;124163;-74
2021/03/11 01:13:39;;;;;;;20.55;12.73;;;;;;;11.09;57.71;100072.59;4938206;28;124209;-74
2021/03/11 01:16:06;;;;;;;20.90;13.10;;;;;;;11.10;57.84;100059.25;4943130;28;119113;-74
2021/03/11 01:18:33;;;;;;;20.60;13.07;;;;;;;11.14;57.88;100059.09;4914615;28;118578;-74
2021/03/11 01:20:59;;;;;;;19.88;13.02;;;;;;;11.14;57.83;100059.09;4926827;28;123712;-75
2021/03/11 01:23:26;;;;;;;21.15;13.38;;;;;;;11.16;57.75;100057.19;4932156;28;124860;-74
2021/03/11 01:25:53;;;;;;;18.50;12.98;;;;;;;11.18;57.47;100045.53;4935917;28;119690;-75
2021/03/11 01:28:19;;;;;;;20.20;12.57;;;;;;;11.19;57.64;100026.06;4939644;28;119150;-74
2021/03/11 01:30:46;;;;;;;19.70;12.60;;;;;;;11.20;57.77;100037.50;4908913;28;123385;-74
2021/03/11 01:33:13;;;;;;;21.25;13.52;;;;;;;11.22;57.34;100017.91;4940192;28;124109;-74
2021/03/11 01:35:40;;;;;;;17.50;12.23;;;;;;;11.26;57.58;100026.53;4916356;28;121126;-74
2021/03/11 01:38:06;;;;;;;18.00;12.32;;;;;;;11.26;57.51;100005.31;4927394;28;120375;-74
2021/03/11 01:40:33;;;;;;;18.42;13.02;;;;;;;11.28;57.55;100003.41;4945644;28;124240;-75
2021/03/11 01:43:03;;;;;;;18.17;12.05;;;;;;;11.29;57.63;99994.53;4911542;28;124385;-74
2021/03/11 01:45:30;;;;;;;19.38;12.35;;;;;;;11.30;57.78;99980.31;4907025;28;118581;-74
2021/03/11 01:47:57;;;;;;;19.80;12.52;;;;;;;11.32;57.89;99969.63;4934271;28;119110;-74
2021/03/11 01:50:24;;;;;;;17.33;11.80;;;;;;;11.31;57.81;99960.84;4933392;28;124475;-74
2021/03/11 01:52:51;;;;;;;18.80;12.05;;;;;;;11.31;58.05;99960.84;4946791;28;124460;-74
2021/03/11 01:55:19;;;;;;;19.73;11.85;;;;;;;11.32;58.04;99946.66;4919291;28;119049;-74
2021/03/11 01:57:47;;;;;;;20.27;12.38;;;;;;;11.30;57.90;99944.09;4929055;28;118435;-74
2021/03/11 02:00:15;;;;;;;16.98;12.00;;;;;;;11.30;58.09;99922.00;4923794;28;124335;-74
2021/03/11 02:02:43;;;;;;;20.00;12.07;;;;;;;11.30;57.89;99928.19;4929485;28;123791;-74
2021/03/11 02:05:15;;;;;;;17.33;10.95;;;;;;;11.29;58.22;99925.63;4937421;28;120479;-72
2021/03/11 02:07:42;;;;;;;16.70;11.52;;;;;;;11.30;58.17;99927.31;4931642;28;119182;-72
2021/03/11 02:10:11;;;;;;;16.70;11.60;;;;;;;11.30;58.45;99906.97;4935024;28;124951;-72
2021/03/11 02:13:02;;;;;;;16.75;10.80;;;;;;;11.31;58.23;99907.81;4918357;28;122980;-72
2021/03/11 02:16:02;;;;;;;15.05;10.50;;;;;;;11.29;58.15;99896.47;4926715;28;119328;-72
2021/03/11 02:18:42;;;;;;;14.15;10.50;;;;;;;11.31;58.46;99902.50;4866851;28;118337;-72
2021/03/11 02:21:11;;;;;;;15.35;10.25;;;;;;;11.31;58.23;99891.91;4919158;28;123561;-73
2021/03/11 02:24:03;;;;;;;15.30;10.40;;;;;;;11.31;58.57;99891.91;4930914;28;124327;-72
2021/03/11 02:26:51;;;;;;;13.93;9.80;;;;;;;11.34;58.49;99891.72;4927252;28;120425;-72
2021/03/11 02:29:22;;;;;;;14.60;10.00;;;;;;;11.34;58.60;99881.13;4942661;28;120229;-72
2021/03/11 02:31:50;;;;;;;12.35;9.30;;;;;;;11.34;58.53;99878.47;4929818;28;124618;-72
2021/03/11 02:34:19;;;;;;;12.57;9.32;;;;;;;11.36;59.08;99863.31;4936392;28;123782;-72
2021/03/11 02:36:49;;;;;;;13.32;9.75;;;;;;;11.38;58.97;99850.81;4927197;28;120057;-72
2021/03/11 02:39:19;;;;;;;12.65;9.15;;;;;;;11.40;58.67;99816.25;4925022;28;119585;-72
2021/03/11 02:41:47;;;;;;;15.30;9.48;;;;;;;11.41;58.67;99818.78;4942256;28;124024;-72
2021/03/11 02:44:15;;;;;;;15.07;8.93;;;;;;;11.41;58.87;99829.38;4943992;28;124115;-72
2021/03/11 02:46:42;;;;;;;13.68;9.30;;;;;;;11.42;59.16;99830.25;4935539;28;119033;-72
2021/03/11 02:49:10;;;;;;;13.57;9.05;;;;;;;11.42;59.20;99836.41;4929194;28;116864;-72
2021/03/11 02:51:38;;;;;;;12.95;9.30;;;;;;;11.42;59.34;99809.88;4918152;28;124135;-72
2021/03/11 02:54:05;;;;;;;12.18;8.77;;;;;;;11.41;59.61;99824.09;4915996;28;123468;-72
2021/03/11 02:56:33;;;;;;;14.38;9.07;;;;;;;11.39;59.42;99828.63;4939324;28;119217;-72
2021/03/11 02:59:00;;;;;;;13.48;9.45;;;;;;;11.40;59.60;99819.75;4920992;28;118719;-72
2021/03/11 03:01:27;;;;;;;12.45;8.20;;;;;;;11.41;59.39;99808.19;4926616;28;124194;-73
2021/03/11 03:03:54;;;;;;;11.73;8.43;;;;;;;11.45;59.41;99803.53;4925395;28;122922;-72
2021/03/11 03:06:21;;;;;;;12.60;8.52;;;;;;;11.45;59.50;99788.50;4937567;28;119365;-73
2021/03/11 03:08:48;;;;;;;11.70;8.40;;;;;;;11.46;59.64;99784.88;4942772;28;119459;-72
2021/03/11 03:11:15;;;;;;;11.15;8.52;;;;;;;11.47;59.58;99781.28;4937951;28;123822;-72
2021/03/11 03:13:42;;;;;;;10.85;8.27;;;;;;;11.50;59.76;99773.09;4915727;28;122959;-73
2021/03/11 03:16:12;;;;;;;10.82;8.90;;;;;;;11.50;59.64;99775.75;4929397;28;120545;-72
2021/03/11 03:18:39;;;;;;;10.40;8.18;;;;;;;11.54;59.80;99764.97;4913103;28;120166;-72
2021/03/11 03:21:10;;;;;;;12.18;8.38;;;;;;;11.54;59.79;99749.03;4924502;28;123637;-72
2021/03/11 03:23:39;;;;;;;11.50;8.27;;;;;;;11.55;59.78;99732.19;4939687;28;123603;-72
2021/03/11 03:26:06;;;;;;;10.45;8.25;;;;;;;11.57;59.85;99727.63;4924950;28;120071;-72
2021/03/11 03:28:34;;;;;;;10.60;8.45;;;;;;;11.60;59.65;99722.09;4936718;28;118776;-73
2021/03/11 03:31:01;;;;;;;12.27;8.48;;;;;;;11.61;59.68;99737.09;4941460;28;124205;-72
2021/03/11 03:33:28;;;;;;;11.32;8.25;;;;;;;11.64;59.94;99735.06;4915013;28;123287;-72
2021/03/11 03:35:55;;;;;;;10.73;8.27;;;;;;;11.65;59.73;99735.91;4935254;28;119970;-72
2021/03/11 03:38:21;;;;;;;11.38;8.52;;;;;;;11.68;59.61;99719.81;4914472;28;119209;-72
2021/03/11 03:40:48;;;;;;;10.60;8.63;;;;;;;11.68;59.87;99714.50;4945926;28;124672;-72
2021/03/11 03:43:21;;;;;;;10.98;8.52;;;;;;;11.70;59.70;99707.28;4916872;28;122180;-72
2021/03/11 03:45:54;;;;;;;11.30;8.52;;;;;;;11.73;59.80;99696.44;4942439;28;119475;-72
2021/03/11 03:48:31;;;;;;;10.38;8.55;;;;;;;11.76;59.78;99690.09;4926879;28;119395;-72
2021/03/11 03:50:58;;;;;;;12.38;8.98;;;;;;;11.79;60.16;99696.06;4922648;28;123277;-75
2021/03/11 03:53:29;;;;;;;14.68;9.25;;;;;;;11.82;59.81;99705.59;4941579;28;124046;-75
2021/03/11 03:56:15;;;;;;;12.32;9.57;;;;;;;11.85;59.83;99689.47;4932842;28;118780;-75
2021/03/11 03:58:43;;;;;;;13.65;10.07;;;;;;;11.86;59.89;99710.56;4937645;28;119072;-73
2021/03/11 04:01:10;;;;;;;14.95;10.00;;;;;;;11.88;59.96;99695.44;4932672;28;123778;-72
2021/03/11 04:03:38;;;;;;;15.50;10.48;;;;;;;11.88;60.32;99711.34;4920684;28;123337;-72
2021/03/11 04:06:09;;;;;;;16.52;11.13;;;;;;;11.88;60.19;99705.16;4930874;28;120072;-72
2021/03/11 04:08:39;;;;;;;15.95;11.10;;;;;;;11.90;60.23;99713.91;4921482;28;120017;-71
2021/03/11 04:11:06;;;;;;;14.68;11.15;;;;;;;11.91;60.25;99725.38;4933295;28;124310;-72
2021/03/11 04:13:33;;;;;;;15.13;11.32;;;;;;;11.92;60.31;99716.44;4941170;28;123556;-72
2021/03/11 04:16:00;;;;;;;15.43;11.40;;;;;;;11.92;60.67;99701.38;4912942;28;119355;-72
2021/03/11 04:18:27;;;;;;;17.20;12.27;;;;;;;11.94;60.89;99694.19;4923022;28;118418;-72
2021/03/11 04:20:55;;;;;;;15.98;11.70;;;;;;;11.94;60.52;99688.88;4926002;28;123512;-72
2021/03/11 04:23:22;;;;;;;17.48;12.65;;;;;;;11.96;60.78;99667.50;4934805;28;124380;-72
2021/03/11 04:25:49;;;;;;;17.58;12.50;;;;;;;11.97;60.86;99666.56;4917290;28;119716;-72
2021/03/11 04:28:16;;;;;;;16.20;12.45;;;;;;;11.97;60.81;99650.66;4937475;28;120576;-72
2021/03/11 04:30:43;;;;;;;19.30;12.32;;;;;;;11.99;61.27;99640.78;4927868;28;124657;-72
2021/03/11 04:33:11;;;;;;;16.63;12.82;;;;;;;12.00;60.99;99634.53;4916614;28;123525;-72
2021/03/11 04:35:38;;;;;;;18.75;13.30;;;;;;;12.03;60.95;99623.69;4933095;28;118438;-73
2021/03/11 04:38:05;;;;;;;19.52;13.10;;;;;;;12.06;61.21;99628.78;4937413;28;118919;-73
2021/03/11 04:40:33;;;;;;;20.33;13.23;;;;;;;12.08;61.13;99627.72;4940605;28;123891;-72
2021/03/11 04:43:01;;;;;;;19.35;13.77;;;;;;;12.09;61.13;99628.53;4905651;28;122914;-72
2021/03/11 04:45:28;;;;;;;19.85;14.32;;;;;;;12.10;61.02;99640.88;4937594;28;120116;-72
2021/03/11 04:47:55;;;;;;;20.27;13.55;;;;;;;12.12;61.38;99628.34;4925549;28;119626;-72
2021/03/11 04:50:22;;;;;;;18.38;13.75;;;;;;;12.14;61.15;99631.72;4938317;28;123831;-72
2021/03/11 04:52:50;;;;;;;19.38;13.75;;;;;;;12.16;61.12;99629.81;4935509;28;121891;-74
2021/03/11 04:55:17;;;;;;;20.33;13.75;;;;;;;12.17;61.32;99623.56;4934434;28;118585;-74
2021/03/11 04:57:44;;;;;;;18.83;13.48;;;;;;;12.18;61.08;99619.94;4940219;28;118884;-72
2021/03/11 05:00:14;;;;;;;19.77;13.18;;;;;;;12.21;61.27;99621.53;4935930;28;124190;-72
2021/03/11 05:02:44;;;;;;;18.63;13.57;;;;;;;12.21;61.09;99614.41;4943162;28;124758;-72
2021/03/11 05:05:11;;;;;;;19.40;12.75;;;;;;;12.24;61.38;99622.16;4932797;28;119904;-72
2021/03/11 05:07:38;;;;;;;18.80;12.85;;;;;;;12.25;61.38;99615.88;4938997;28;119650;-72
2021/03/11 05:10:05;;;;;;;18.90;13.20;;;;;;;12.29;61.21;99605.06;4936650;28;124775;-72
2021/03/11 05:12:31;;;;;;;19.45;12.48;;;;;;;12.30;61.09;99609.38;4917019;28;123918;-72
2021/03/11 05:14:58;;;;;;;18.65;12.15;;;;;;;12.33;61.18;99614.50;4936475;28;119365;-72
2021/03/11 05:17:24;;;;;;;16.52;12.57;;;;;;;12.37;61.00;99594.72;4923154;28;118029;-72
2021/03/11 05:19:51;;;;;;;18.15;12.27;;;;;;;12.39;61.07;99603.41;4940200;28;124024;-72
2021/03/11 05:22:18;;;;;;;18.15;11.75;;;;;;;12.42;61.27;99597.91;4924625;28;123812;-72
2021/03/11 05:24:45;;;;;;;17.25;11.18;;;;;;;12.45;61.08;99618.91;4930782;28;119303;-72
2021/03/11 05:27:18;;;;;;;15.50;11.40;;;;;;;12.46;60.94;99599.38;4938095;28;118887;-72
2021/03/11 05:29:44;;;;;;;14.63;10.75;;;;;;;12.49;60.88;99592.97;4938698;28;124691;-72
2021/03/11 05:32:12;;;;;;;16.17;10.52;;;;;;;12.51;61.07;99607.84;4938887;28;123832;-72
2021/03/11 05:34:38;;;;;;;14.68;11.25;;;;;;;12.53;61.13;99600.63;4901332;28;119309;-73
2021/03/11 05:37:05;;;;;;;14.55;10.38;;;;;;;12.55;61.07;99593.38;4940335;28;118987;-72
2021/03/11 05:39:33;;;;;;;13.18;10.00;;;;;;;12.60;60.95;99585.06;4934840;28;125077;-72
2021/03/11 05:42:00;;;;;;;13.27;10.43;;;;;;;12.63;60.91;99591.00;4915555;28;123405;-72
2021/03/11 05:44:28;;;;;;;14.43;10.25;;;;;;;12.65;61.16;99578.44;4935456;28;119880;-72
2021/03/11 05:46:55;;;;;;;14.23;10.45;;;;;;;12.69;60.83;99554.31;4938315;28;120237;-72
2021/03/11 05:49:24;;;;;;;13.85;10.27;;;;;;;12.71;60.80;99557.72;4933501;28;124515;-72
2021/03/11 05:51:51;;;;;;;14.30;10.23;;;;;;;12.75;60.90;99567.13;4941233;28;122890;-72
2021/03/11 05:54:18;;;;;;;14.00;9.75;;;;;;;12.77;60.95;99570.53;4938253;28;118236;-72
2021/03/11 05:56:45;;;;;;;14.18;9.57;;;;;;;12.79;60.86;99571.25;4924541;28;118286;-72
2021/03/11 05:59:12;;;;;;;12.75;9.50;;;;;;;12.81;60.95;99561.38;4923071;28;124413;-72
2021/03/11 06:01:39;;;;;;;13.60;10.02;;;;;;;12.83;60.89;99546.19;4924132;28;123410;-72
2021/03/11 06:04:06;;;;;;;14.45;9.88;;;;;;;12.86;60.83;99545.94;4912992;28;119856;-72
2021/03/11 06:06:33;;;;;;;13.00;9.65;;;;;;;12.89;60.75;99553.69;4937198;28;119014;-72
2021/03/11 06:09:01;;;;;;;13.23;9.85;;;;;;;12.92;60.83;99537.50;4935828;28;124161;-72
2021/03/11 06:11:28;;;;;;;13.13;10.27;;;;;;;12.95;60.67;99542.56;4938932;28;124218;-72
2021/03/11 06:13:56;;;;;;;13.57;9.63;;;;;;;12.97;60.44;99524.69;4939920;28;119104;-72
2021/03/11 06:16:26;;;;;;;11.98;8.95;;;;;;;13.02;60.73;99543.81;4942566;28;119674;-72
2021/03/11 06:18:52;;;;;;;12.73;9.80;;;;;;;13.04;60.79;99539.22;4936074;28;124106;-72
2021/03/11 06:21:19;;;;;;;12.55;9.38;;;;;;;13.06;60.74;99533.78;4930158;28;124368;-72
2021/03/11 06:23:46;;;;;;;14.05;10.10;;;;;;;13.09;60.30;99522.06;4923955;28;119757;-72
2021/03/11 06:26:13;;;;;;;12.43;8.82;;;;;;;13.12;60.76;99532.47;4941089;28;118833;-72
2021/03/11 06:28:45;;;;;;;14.13;9.68;;;;;;;13.14;60.66;99519.91;4939628;28;124605;-72
2021/03/11 06:31:20;;;;;;;14.63;9.25;;;;;;;13.16;60.53;99533.94;4934597;28;125059;-72
2021/03/11 06:33:49;;;;;;;15.68;9.43;;;;;;;13.18;60.50;99537.31;4917917;28;120674;-72
2021/03/11 06:36:17;;;;;;;13.27;9.50;;;;;;;13.21;60.64;99526.44;4926867;28;117795;-71
2021/03/11 06:38:44;;;;;;;12.57;9.50;;;;;;;13.22;60.64;99507.72;4934410;28;124379;-72
2021/03/11 06:41:10;;;;;;;12.05;9.73;;;;;;;13.24;60.65;99499.59;4915391;28;124170;-72
2021/03/11 06:43:51;;;;;;;13.63;9.45;;;;;;;13.25;60.63;99501.31;4935964;22;118286;-67
2021/03/11 06:46:20;;;;;;;13.20;9.23;;;;;;;13.25;60.61;99501.31;4932860;28;118407;-67
2021/03/11 06:48:48;;;;;;;11.85;8.40;;;;;;;13.25;60.47;99496.00;4934846;28;123519;-67
2021/03/11 06:51:18;;;;;;;12.65;7.80;;;;;;;13.27;60.56;99496.72;4932189;28;123825;-68
2021/03/11 06:53:56;;;;;;;10.60;7.45;;;;;;;13.27;60.73;99499.38;4942453;28;119454;-67
2021/03/11 06:56:25;;;;;;;10.98;7.70;;;;;;;13.29;60.50;99505.41;4948328;28;118265;-67
2021/03/11 06:59:03;;;;;;;11.93;8.27;;;;;;;13.31;60.63;99510.66;4946479;28;123656;-69
2021/03/11 07:01:31;;;;;;;12.00;8.25;;;;;;;13.33;60.81;99514.88;4958029;28;122908;-69
2021/03/11 07:04:01;;;;;;;14.77;8.85;;;;;;;13.34;60.73;99511.28;4944628;28;120325;-67
2021/03/11 07:06:34;;;;;;;13.77;9.07;;;;;;;13.32;61.01;99518.53;4946451;28;119007;-67
2021/03/11 07:09:02;;;;;;;14.32;9.13;;;;;;;13.32;60.98;99518.53;4948484;28;124518;-67
2021/03/11 07:11:29;;;;;;;12.70;9.02;;;;;;;13.33;61.03;99519.34;4946289;28;124041;-69
2021/03/11 07:13:59;;;;;;;13.48;8.88;;;;;;;13.31;61.04;99535.44;4949843;28;119957;-68
2021/03/11 07:16:28;;;;;;;13.70;9.25;;;;;;;13.30;61.32;99525.78;4952282;28;119123;-68
2021/03/11 07:19:15;;;;;;;14.95;9.30;;;;;;;13.28;61.32;99511.72;4953299;28;122200;-68
2021/03/11 07:21:47;;;;;;;12.48;9.27;;;;;;;13.30;61.51;99504.50;4947448;28;122345;-68
2021/03/11 07:24:33;;;;;;;14.05;9.32;;;;;;;13.32;61.71;99497.25;4961357;28;120361;-67
2021/03/11 07:27:02;;;;;;;13.20;9.18;;;;;;;13.37;62.11;99495.09;4947077;28;119069;-69
2021/03/11 07:29:28;;;;;;;13.77;9.13;;;;;;;13.40;62.06;99494.81;4957979;28;124293;-68
2021/03/11 07:31:57;;;;;;;12.27;8.82;;;;;;;13.43;61.82;99497.25;4962392;28;123051;-68
2021/03/11 07:34:29;;;;;;;12.05;8.60;;;;;;;13.47;61.66;99489.00;4949485;28;117882;-68
2021/03/11 07:36:57;;;;;;;11.20;8.50;;;;;;;13.51;61.84;99479.84;4955820;28;119712;-68
2021/03/11 07:39:27;;;;;;;12.07;7.90;;;;;;;13.56;61.90;99477.66;4960355;28;123332;-68
2021/03/11 07:41:59;;;;;;;11.35;7.80;;;;;;;13.63;61.86;99462.91;4954543;28;124560;-68
2021/03/11 07:44:30;;;;;;;10.93;7.10;;;;;;;13.71;61.68;99470.25;4938634;28;118034;-67
2021/03/11 07:46:58;;;;;;;9.63;7.55;;;;;;;13.75;61.67;99469.91;4956949;28;118832;-68
2021/03/11 07:49:29;;;;;;;11.23;7.45;;;;;;;13.82;61.67;99463.13;4956778;28;123850;-68
2021/03/11 07:51:56;;;;;;;11.27;7.05;;;;;;;13.89;61.48;99454.63;4949708;28;122128;-68
2021/03/11 07:54:23;;;;;;;10.45;6.90;;;;;;;13.95;61.22;99446.16;4959199;28;118573;-68
2021/03/11 07:56:52;;;;;;;12.43;7.45;;;;;;;14.00;61.26;99450.13;4969892;28;119623;-69
2021/03/11 07:59:20;;;;;;;12.05;6.82;;;;;;;14.07;61.32;99438.97;4957370;28;123544;-69
2021/03/11 08:01:53;;;;;;;11.45;6.20;;;;;;;14.14;61.04;99441.00;4954750;28;123509;-68
2021/03/11 08:04:27;;;;;;;11.10;5.38;;;;;;;14.18;60.74;99447.78;4949750;28;118818;-68
2021/03/11 08:07:19;;;;;;;12.32;5.90;;;;;;;14.23;60.82;99459.88;4956456;28;119223;-70
2021/03/11 08:09:49;;;;;;;11.75;5.45;;;;;;;14.28;60.33;99447.84;4947623;28;124364;-71
2021/03/11 08:12:34;;;;;;;15.07;5.47;;;;;;;14.34;60.47;99431.34;4953337;28;124326;-70
2021/03/11 08:15:05;;;;;;;10.25;5.50;;;;;;;14.42;60.55;99422.72;4952758;28;121502;-70
2021/03/11 08:17:38;;;;;;;9.98;4.82;;;;;;;14.48;60.35;99427.53;4949871;28;120306;-71
2021/03/11 08:20:25;;;;;;;10.27;4.40;;;;;;;14.53;60.03;99430.66;4952314;28;124055;-70
2021/03/11 08:22:55;;;;;;;9.02;4.75;;;;;;;14.59;59.68;99430.16;4969221;28;124085;-70
2021/03/11 08:25:32;;;;;;;10.05;4.68;;;;;;;14.64;59.43;99415.63;4948174;28;117932;-71
2021/03/11 08:28:22;;;;;;;10.10;4.22;;;;;;;14.69;59.45;99408.06;4950998;28;117894;-72
2021/03/11 08:30:55;;;;;;;10.10;4.47;;;;;;;14.76;59.41;99409.25;4941866;28;124214;-70
2021/03/11 08:33:21;;;;;;;15.77;4.47;;;;;;;14.84;59.32;99396.09;4955770;28;124465;-70
2021/03/11 08:35:50;;;;;;;9.63;3.38;;;;;;;14.90;58.36;99406.25;4967980;28;120287;-70
2021/03/11 08:38:19;;;;;;;10.82;3.33;;;;;;;14.94;57.56;99397.00;4951166;28;118497;-71
2021/03/11 08:40:53;;;;;;;10.43;3.10;;;;;;;14.99;57.25;99416.13;4949325;28;123748;-71
2021/03/11 08:43:35;;;;;;;9.68;3.55;;;;;;;15.05;57.31;99403.22;4952772;28;124332;-70
2021/03/11 08:46:11;;;;;;;10.40;3.05;;;;;;;15.11;56.86;99386.69;4936459;28;118527;-71
2021/03/11 08:49:01;;;;;;;12.38;3.10;;;;;;;15.16;56.78;99379.97;4942288;28;119299;-70
2021/03/11 08:51:28;;;;;;;10.93;3.38;;;;;;;15.27;56.30;99387.00;4930278;28;122041;-70
2021/03/11 08:54:22;;;;;;;10.25;2.97;;;;;;;15.38;55.96;99384.25;4952424;28;122122;-70
2021/03/11 08:56:48;;;;;;;12.07;2.72;;;;;;;15.47;55.30;99387.09;4946259;28;118399;-70
2021/03/11 08:59:17;;;;;;;14.85;3.05;;;;;;;15.54;54.95;99385.56;4955523;28;118923;-70
2021/03/11 09:01:50;;;;;;;14.77;3.00;;;;;;;15.60;54.69;99387.69;4952787;28;122010;-70
2021/03/11 09:04:19;;;;;;;18.88;3.35;;;;;;;15.69;54.43;99402.00;4950626;28;122266;-68
2021/03/11 09:06:59;;;;;;;15.27;3.88;;;;;;;15.75;53.89;99402.34;4944190;28;119778;-70
2021/03/11 09:09:50;;;;;;;13.55;3.58;;;;;;;15.82;53.72;99401.78;4940633;28;121091;-69
2021/03/11 09:12:32;;;;;;;20.58;4.35;;;;;;;15.89;53.33;99402.94;4951070;28;123421;-69
2021/03/11 09:15:01;;;;;;;21.80;4.30;;;;;;;15.97;52.29;99411.09;4942258;28;124031;-69
2021/03/11 09:17:30;;;;;;;19.63;4.18;;;;;;;16.04;51.96;99401.53;4945009;28;118670;-68
2021/03/11 09:20:01;;;;;;;20.33;4.75;;;;;;;16.10;51.64;99408.97;4949763;28;118822;-70
2021/03/11 09:22:40;;;;;;;18.77;4.32;;;;;;;16.17;51.04;99400.44;4944747;28;123848;-70
2021/03/11 09:25:14;;;;;;;30.52;5.10;;;;;;;16.21;50.66;99396.50;4949960;28;124358;-69
2021/03/11 09:27:57;;;;;;;26.20;5.00;;;;;;;16.24;50.83;99390.88;4924147;28;118069;-68
2021/03/11 09:30:31;;;;;;;19.67;4.87;;;;;;;16.29;50.46;99399.28;4938715;28;119166;-69
2021/03/11 09:33:25;;;;;;;25.95;5.50;;;;;;;16.33;50.09;99390.00;4927057;28;123021;-68
2021/03/11 09:35:52;;;;;;;22.20;4.45;;;;;;;16.41;50.19;99397.31;4960477;28;124480;-70
2021/03/11 09:38:23;;;;;;;23.50;4.63;;;;;;;16.47;49.78;99376.22;4956490;28;118215;-69
2021/03/11 09:40:52;;;;;;;20.33;4.45;;;;;;;16.57;49.09;99399.41;4928456;28;118380;-69
2021/03/11 09:43:26;;;;;;;25.60;4.68;;;;;;;16.62;48.55;99394.47;4948936;28;122855;-70
2021/03/11 09:46:10;;;;;;;22.38;4.82;;;;;;;16.68;48.79;99388.56;4942375;28;122576;-69
2021/03/11 09:48:40;;;;;;;22.13;4.65;;;;;;;16.72;48.22;99389.94;4943776;28;119967;-70
2021/03/11 09:51:10;;;;;;;20.10;4.97;;;;;;;16.76;47.83;99407.38;4941959;28;118283;-70
2021/03/11 09:53:38;;;;;;;22.25;4.68;;;;;;;16.75;47.70;99413.72;4945018;28;123026;-71
2021/03/11 09:56:10;;;;;;;19.77;4.70;;;;;;;16.74;47.16;99382.63;4944703;28;124010;-70
2021/03/11 09:58:42;;;;;;;24.90;4.85;;;;;;;16.70;47.12;99391.91;4948182;28;120537;-69
2021/03/11 10:01:09;;;;;;;25.77;5.18;;;;;;;16.68;46.96;99393.91;4942716;28;120563;-70
2021/03/11 10:03:37;;;;;;;24.73;4.95;;;;;;;16.63;46.71;99374.75;4938643;28;123114;-69
2021/03/11 10:06:06;;;;;;;18.02;4.40;;;;;;;16.59;46.70;99384.06;4943871;28;123096;-69
2021/03/11 10:08:35;;;;;;;23.17;4.65;;;;;;;16.57;46.41;99386.03;4928687;28;118433;-69
2021/03/11 10:11:16;;;;;;;20.17;4.20;;;;;;;16.54;46.82;99398.72;4951443;28;118975;-69
2021/03/11 10:13:57;;;;;;;21.48;4.65;;;;;;;16.57;46.58;99396.72;4943704;28;123322;-71
2021/03/11 10:16:36;;;;;;;25.33;4.68;;;;;;;16.60;46.83;99397.28;4950178;28;123051;-69
2021/03/11 10:19:11;;;;;;;25.45;4.85;;;;;;;16.61;46.30;99401.63;4950316;28;118504;-69
2021/03/11 10:21:52;;;;;;;21.92;4.57;;;;;;;16.62;46.31;99410.53;4938416;28;119242;-69
2021/03/11 10:24:41;;;;;;;21.67;4.32;;;;;;;16.59;46.29;99400.09;4936327;28;125029;-69
2021/03/11 10:27:24;;;;;;;21.23;4.72;;;;;;;16.53;45.78;99413.03;4949706;28;123980;-69
2021/03/11 10:30:12;;;;;;;24.58;4.07;;;;;;;16.48;45.48;99418.00;4952401;28;119242;-70
2021/03/11 10:32:44;;;;;;;18.73;4.57;;;;;;;16.42;45.14;99412.38;4949421;28;118923;-69
2021/03/11 10:35:23;;;;;;;20.40;4.13;;;;;;;16.39;45.24;99409.97;4950689;28;123093;-70
2021/03/11 10:37:49;;;;;;;17.40;4.07;;;;;;;16.34;45.44;99413.06;4945705;28;124084;-69
2021/03/11 10:40:24;;;;;;;23.00;4.80;;;;;;;16.31;45.14;99418.69;4951165;28;119795;-69
2021/03/11 10:42:54;;;;;;;20.30;4.18;;;;;;;16.30;45.26;99414.34;4945413;28;118860;-69
2021/03/11 10:45:26;;;;;;;19.75;3.90;;;;;;;16.31;45.18;99440.06;4943307;28;122165;-69
2021/03/11 10:48:02;;;;;;;22.13;4.45;;;;;;;16.29;45.26;99415.31;4946481;28;124076;-69
2021/03/11 10:50:31;;;;;;;23.08;4.97;;;;;;;16.32;44.97;99423.06;4944474;28;119823;-70
2021/03/11 10:52:58;;;;;;;31.48;5.10;;;;;;;16.32;45.18;99421.22;4947058;28;119552;-69
2021/03/11 10:55:26;;;;;;;18.90;4.28;;;;;;;16.33;45.12;99417.56;4946708;28;123665;-68
2021/03/11 10:57:52;;;;;;;23.60;4.55;;;;;;;16.36;44.89;99437.81;4943207;28;123979;-70
2021/03/11 11:00:27;;;;;;;27.13;4.30;;;;;;;16.36;44.74;99419.13;4959378;28;119044;-70
2021/03/11 11:02:56;;;;;;;22.08;4.10;;;;;;;16.37;44.62;99422.63;4958479;28;117236;-71
2021/03/11 11:05:23;;;;;;;23.48;4.57;;;;;;;16.34;44.40;99466.50;4947594;28;124482;-69
2021/03/11 11:07:50;;;;;;;22.08;4.40;;;;;;;16.31;44.28;99453.41;4945730;28;123500;-71
2021/03/11 11:10:20;;;;;;;16.50;4.10;;;;;;;16.26;44.34;99442.34;4941203;28;119560;-70
2021/03/11 11:12:48;;;;;;;23.23;4.35;;;;;;;16.26;44.33;99437.00;4929967;28;118434;-69
2021/03/11 11:15:15;;;;;;;16.80;3.70;;;;;;;16.26;44.34;99437.81;4934326;28;125739;-68
2021/03/11 11:17:42;;;;;;;20.88;4.50;;;;;;;16.25;44.29;99452.16;4935707;28;124127;-68
2021/03/11 11:20:13;;;;;;;17.83;3.78;;;;;;;16.24;43.99;99442.47;4933644;28;119080;-68
2021/03/11 11:22:40;;;;;;;20.98;4.22;;;;;;;16.27;44.13;99444.00;4947058;28;117887;-69
2021/03/11 11:25:08;;;;;;;20.38;4.32;;;;;;;16.28;44.54;99456.38;4938961;28;124706;-68
2021/03/11 11:27:35;;;;;;;24.15;4.15;;;;;;;16.37;44.43;99462.69;4941600;28;121408;-68